sensor_id;sensor_type;location;lat;lon;timestamp;temperature;humidity
31455;DHT22;18084;53.028;8.834;2023-04-21T00:00:53;9.20;99.90
31455;DHT22;18084;53.028;8.834;2023-04-21T00:03:20;9.10;99.90
31455;DHT22;18084;53.028;8.834;2023-04-21T00:05:50;9.20;99.90
31455;DHT22;18084;53.028;8.834;2023-04-21T00:08:17;9.10;99.90
31455;DHT22;18084;53.028;8.834;2023-04-21T00:10:43;9.10;99.90
31455;DHT22;18084;53.028;8.834;2023-04-21T00:13:09;9.10;99.90
31455;DHT22;18084;53.028;8.834;2023-04-21T00:15:34;9.10;99.90
31455;DHT22;18084;53.028;8.834;2023-04-21T00:18:00;9.10;99.00
31455;DHT22;18084;53.028;8.834;2023-04-21T00:20:26;9.10;99.40
31455;DHT22;18084;53.028;8.834;2023-04-21T00:22:53;9.00;99.90
31455;DHT22;18084;53.028;8.834;2023-04-21T00:25:18;9.00;99.90
31455;DHT22;18084;53.028;8.834;2023-04-21T00:27:44;9.00;99.90
31455;DHT22;18084;53.028;8.834;2023-04-21T00:30:10;9.00;99.90
31455;DHT22;18084;53.028;8.834;2023-04-21T00:32:38;9.00;99.90
31455;DHT22;18084;53.028;8.834;2023-04-21T00:35:04;9.00;99.90
31455;DHT22;18084;53.028;8.834;2023-04-21T00:37:30;9.00;99.90
31455;DHT22;18084;53.028;8.834;2023-04-21T00:39:55;9.10;99.90
31455;DHT22;18084;53.028;8.834;2023-04-21T00:42:21;9.00;99.80
31455;DHT22;18084;53.028;8.834;2023-04-21T00:44:46;9.00;99.00
31455;DHT22;18084;53.028;8.834;2023-04-21T00:47:12;9.00;98.90
31455;DHT22;18084;53.028;8.834;2023-04-21T00:49:37;9.00;98.80
31455;DHT22;18084;53.028;8.834;2023-04-21T00:52:04;9.00;98.70
31455;DHT22;18084;53.028;8.834;2023-04-21T00:54:31;8.90;99.60
31455;DHT22;18084;53.028;8.834;2023-04-21T00:56:56;8.90;99.90
31455;DHT22;18084;53.028;8.834;2023-04-21T00:59:25;8.80;99.90
31455;DHT22;18084;53.028;8.834;2023-04-21T01:01:50;8.80;99.90
31455;DHT22;18084;53.028;8.834;2023-04-21T01:04:17;8.80;99.90
31455;DHT22;18084;53.028;8.834;2023-04-21T01:06:42;8.70;99.90
31455;DHT22;18084;53.028;8.834;2023-04-21T01:09:08;8.70;99.90
31455;DHT22;18084;53.028;8.834;2023-04-21T01:11:33;8.70;99.90
31455;DHT22;18084;53.028;8.834;2023-04-21T01:13:59;8.70;99.90
31455;DHT22;18084;53.028;8.834;2023-04-21T01:16:25;8.70;99.90
31455;DHT22;18084;53.028;8.834;2023-04-21T01:18:51;8.70;99.90
31455;DHT22;18084;53.028;8.834;2023-04-21T01:21:18;8.70;99.90
31455;DHT22;18084;53.028;8.834;2023-04-21T01:23:44;8.70;99.90
31455;DHT22;18084;53.028;8.834;2023-04-21T01:26:10;8.70;99.90
31455;DHT22;18084;53.028;8.834;2023-04-21T01:28:35;8.70;99.90
31455;DHT22;18084;53.028;8.834;2023-04-21T01:31:01;8.70;99.90
31455;DHT22;18084;53.028;8.834;2023-04-21T01:33:27;8.60;99.90
31455;DHT22;18084;53.028;8.834;2023-04-21T01:35:53;8.60;99.90
31455;DHT22;18084;53.028;8.834;2023-04-21T01:38:19;8.50;99.90
31455;DHT22;18084;53.028;8.834;2023-04-21T01:40:49;8.60;99.90
31455;DHT22;18084;53.028;8.834;2023-04-21T01:43:17;8.60;99.90
31455;DHT22;18084;53.028;8.834;2023-04-21T01:45:43;8.50;99.90
31455;DHT22;18084;53.028;8.834;2023-04-21T01:48:08;8.50;99.90
31455;DHT22;18084;53.028;8.834;2023-04-21T01:50:34;8.40;99.90
31455;DHT22;18084;53.028;8.834;2023-04-21T01:53:00;8.50;99.90
31455;DHT22;18084;53.028;8.834;2023-04-21T01:55:25;8.50;99.90
31455;DHT22;18084;53.028;8.834;2023-04-21T01:57:51;8.40;99.90
31455;DHT22;18084;53.028;8.834;2023-04-21T02:00:17;8.30;99.90
31455;DHT22;18084;53.028;8.834;2023-04-21T02:02:42;8.30;99.90
31455;DHT22;18084;53.028;8.834;2023-04-21T02:05:08;8.20;99.90
31455;DHT22;18084;53.028;8.834;2023-04-21T02:07:33;8.30;99.90
31455;DHT22;18084;53.028;8.834;2023-04-21T02:09:59;8.30;99.90
31455;DHT22;18084;53.028;8.834;2023-04-21T02:12:24;8.30;99.90
31455;DHT22;18084;53.028;8.834;2023-04-21T02:14:50;8.30;99.90
31455;DHT22;18084;53.028;8.834;2023-04-21T02:17:15;8.30;99.90
31455;DHT22;18084;53.028;8.834;2023-04-21T02:19:42;8.50;99.90
31455;DHT22;18084;53.028;8.834;2023-04-21T02:22:07;8.40;99.90
31455;DHT22;18084;53.028;8.834;2023-04-21T02:24:34;8.30;99.90
31455;DHT22;18084;53.028;8.834;2023-04-21T02:27:00;8.30;99.90
31455;DHT22;18084;53.028;8.834;2023-04-21T02:29:26;8.20;99.90
31455;DHT22;18084;53.028;8.834;2023-04-21T02:31:52;8.30;99.90
31455;DHT22;18084;53.028;8.834;2023-04-21T02:34:17;8.30;99.90
31455;DHT22;18084;53.028;8.834;2023-04-21T02:36:43;8.30;99.90
31455;DHT22;18084;53.028;8.834;2023-04-21T02:39:08;8.20;99.90
31455;DHT22;18084;53.028;8.834;2023-04-21T02:41:34;8.30;99.90
31455;DHT22;18084;53.028;8.834;2023-04-21T02:43:59;8.20;99.90
31455;DHT22;18084;53.028;8.834;2023-04-21T02:46:25;8.20;99.90
31455;DHT22;18084;53.028;8.834;2023-04-21T02:48:50;8.20;99.90
31455;DHT22;18084;53.028;8.834;2023-04-21T02:51:16;8.20;99.90
31455;DHT22;18084;53.028;8.834;2023-04-21T02:53:41;8.20;99.90
31455;DHT22;18084;53.028;8.834;2023-04-21T02:56:07;8.20;99.90
31455;DHT22;18084;53.028;8.834;2023-04-21T02:58:34;8.10;99.90
31455;DHT22;18084;53.028;8.834;2023-04-21T03:01:00;8.10;99.90
31455;DHT22;18084;53.028;8.834;2023-04-21T03:03:26;8.20;99.90
31455;DHT22;18084;53.028;8.834;2023-04-21T03:05:56;8.20;99.90
31455;DHT22;18084;53.028;8.834;2023-04-21T03:08:21;8.30;99.90
31455;DHT22;18084;53.028;8.834;2023-04-21T03:10:47;8.30;99.90
31455;DHT22;18084;53.028;8.834;2023-04-21T03:13:12;8.50;99.90
31455;DHT22;18084;53.028;8.834;2023-04-21T03:15:38;8.40;99.10
31455;DHT22;18084;53.028;8.834;2023-04-21T03:18:04;8.60;95.70
31455;DHT22;18084;53.028;8.834;2023-04-21T03:20:29;8.60;97.10
31455;DHT22;18084;53.028;8.834;2023-04-21T03:22:55;8.50;99.00
31455;DHT22;18084;53.028;8.834;2023-04-21T03:25:20;8.40;99.30
31455;DHT22;18084;53.028;8.834;2023-04-21T03:27:45;8.40;99.10
31455;DHT22;18084;53.028;8.834;2023-04-21T03:30:11;8.30;99.90
31455;DHT22;18084;53.028;8.834;2023-04-21T03:32:36;8.30;99.90
31455;DHT22;18084;53.028;8.834;2023-04-21T03:35:02;8.30;99.90
31455;DHT22;18084;53.028;8.834;2023-04-21T03:37:27;8.30;99.90
31455;DHT22;18084;53.028;8.834;2023-04-21T03:39:53;8.40;99.90
31455;DHT22;18084;53.028;8.834;2023-04-21T03:42:18;8.30;99.90
31455;DHT22;18084;53.028;8.834;2023-04-21T03:44:44;8.30;99.60
31455;DHT22;18084;53.028;8.834;2023-04-21T03:47:09;8.30;99.90
31455;DHT22;18084;53.028;8.834;2023-04-21T03:49:35;8.20;99.90
31455;DHT22;18084;53.028;8.834;2023-04-21T03:52:00;8.20;99.90
31455;DHT22;18084;53.028;8.834;2023-04-21T03:54:26;8.10;99.90
31455;DHT22;18084;53.028;8.834;2023-04-21T03:56:53;8.10;99.90
31455;DHT22;18084;53.028;8.834;2023-04-21T03:59:18;8.00;99.90
31455;DHT22;18084;53.028;8.834;2023-04-21T04:01:44;8.00;99.90
31455;DHT22;18084;53.028;8.834;2023-04-21T04:04:09;8.00;99.90
31455;DHT22;18084;53.028;8.834;2023-04-21T04:06:35;8.00;99.90
31455;DHT22;18084;53.028;8.834;2023-04-21T04:09:04;8.10;99.90
31455;DHT22;18084;53.028;8.834;2023-04-21T04:11:30;8.00;99.90
31455;DHT22;18084;53.028;8.834;2023-04-21T04:13:56;8.00;99.90
31455;DHT22;18084;53.028;8.834;2023-04-21T04:16:22;8.00;99.90
31455;DHT22;18084;53.028;8.834;2023-04-21T04:18:49;8.00;99.90
31455;DHT22;18084;53.028;8.834;2023-04-21T04:21:15;8.00;99.90
31455;DHT22;18084;53.028;8.834;2023-04-21T04:23:40;8.00;99.90
31455;DHT22;18084;53.028;8.834;2023-04-21T04:26:07;8.00;99.90
31455;DHT22;18084;53.028;8.834;2023-04-21T04:28:33;8.00;99.90
31455;DHT22;18084;53.028;8.834;2023-04-21T04:30:59;8.00;99.90
31455;DHT22;18084;53.028;8.834;2023-04-21T04:33:25;8.00;99.90
31455;DHT22;18084;53.028;8.834;2023-04-21T04:35:51;8.10;99.90
31455;DHT22;18084;53.028;8.834;2023-04-21T04:38:16;8.10;99.90
31455;DHT22;18084;53.028;8.834;2023-04-21T04:40:42;8.10;99.90
31455;DHT22;18084;53.028;8.834;2023-04-21T04:43:08;8.00;99.90
31455;DHT22;18084;53.028;8.834;2023-04-21T04:45:35;8.20;99.90
31455;DHT22;18084;53.028;8.834;2023-04-21T04:48:02;8.10;99.90
31455;DHT22;18084;53.028;8.834;2023-04-21T04:50:28;8.10;99.90
31455;DHT22;18084;53.028;8.834;2023-04-21T04:52:53;8.10;99.90
31455;DHT22;18084;53.028;8.834;2023-04-21T04:55:20;8.00;99.90
31455;DHT22;18084;53.028;8.834;2023-04-21T04:57:46;8.00;99.90
31455;DHT22;18084;53.028;8.834;2023-04-21T05:00:12;8.10;99.90
31455;DHT22;18084;53.028;8.834;2023-04-21T05:02:38;8.10;99.90
31455;DHT22;18084;53.028;8.834;2023-04-21T05:05:04;8.20;99.90
31455;DHT22;18084;53.028;8.834;2023-04-21T05:07:30;8.30;99.60
31455;DHT22;18084;53.028;8.834;2023-04-21T05:09:56;8.50;94.00
31455;DHT22;18084;53.028;8.834;2023-04-21T05:12:21;8.60;88.90
31455;DHT22;18084;53.028;8.834;2023-04-21T05:14:47;8.80;84.70
31455;DHT22;18084;53.028;8.834;2023-04-21T05:17:12;8.70;82.50
31455;DHT22;18084;53.028;8.834;2023-04-21T05:19:38;8.80;80.50
31455;DHT22;18084;53.028;8.834;2023-04-21T05:22:03;8.90;79.50
31455;DHT22;18084;53.028;8.834;2023-04-21T05:24:33;9.00;77.90
31455;DHT22;18084;53.028;8.834;2023-04-21T05:26:59;9.10;72.00
31455;DHT22;18084;53.028;8.834;2023-04-21T05:29:25;9.30;66.50
31455;DHT22;18084;53.028;8.834;2023-04-21T05:31:51;9.30;61.60
31455;DHT22;18084;53.028;8.834;2023-04-21T05:34:16;9.40;58.00
31455;DHT22;18084;53.028;8.834;2023-04-21T05:36:42;9.50;52.90
31455;DHT22;18084;53.028;8.834;2023-04-21T05:39:08;9.60;48.40
31455;DHT22;18084;53.028;8.834;2023-04-21T05:41:33;9.70;43.60
31455;DHT22;18084;53.028;8.834;2023-04-21T05:43:59;9.80;38.30
31455;DHT22;18084;53.028;8.834;2023-04-21T05:46:24;10.00;28.60
31455;DHT22;18084;53.028;8.834;2023-04-21T05:48:50;10.10;31.00
31455;DHT22;18084;53.028;8.834;2023-04-21T05:51:15;10.20;27.20
31455;DHT22;18084;53.028;8.834;2023-04-21T05:53:41;10.40;16.70
31455;DHT22;18084;53.028;8.834;2023-04-21T05:56:11;10.60;6.00
31455;DHT22;18084;53.028;8.834;2023-04-21T05:58:37;10.80;1.00
31455;DHT22;18084;53.028;8.834;2023-04-21T06:01:03;11.00;1.00
31455;DHT22;18084;53.028;8.834;2023-04-21T06:03:30;11.00;1.00
31455;DHT22;18084;53.028;8.834;2023-04-21T06:05:56;11.20;1.00
31455;DHT22;18084;53.028;8.834;2023-04-21T06:08:22;11.30;1.00
31455;DHT22;18084;53.028;8.834;2023-04-21T06:10:48;11.50;1.00
31455;DHT22;18084;53.028;8.834;2023-04-21T06:13:13;11.60;1.00
31455;DHT22;18084;53.028;8.834;2023-04-21T06:15:39;11.60;1.00
31455;DHT22;18084;53.028;8.834;2023-04-21T06:18:04;11.90;1.00
31455;DHT22;18084;53.028;8.834;2023-04-21T06:20:30;12.10;1.00
31455;DHT22;18084;53.028;8.834;2023-04-21T06:22:55;12.40;99.90
31455;DHT22;18084;53.028;8.834;2023-04-21T06:25:21;12.80;99.90
31455;DHT22;18084;53.028;8.834;2023-04-21T06:27:46;12.90;99.90
31455;DHT22;18084;53.028;8.834;2023-04-21T06:30:13;12.80;99.90
31455;DHT22;18084;53.028;8.834;2023-04-21T06:32:39;12.90;99.90
31455;DHT22;18084;53.028;8.834;2023-04-21T06:35:04;13.20;99.90
31455;DHT22;18084;53.028;8.834;2023-04-21T06:37:30;13.30;42.50
31455;DHT22;18084;53.028;8.834;2023-04-21T06:39:55;13.50;6.50
31455;DHT22;18084;53.028;8.834;2023-04-21T06:42:21;13.70;99.90
31455;DHT22;18084;53.028;8.834;2023-04-21T06:44:46;13.70;99.90
31455;DHT22;18084;53.028;8.834;2023-04-21T06:47:12;13.90;1.00
31455;DHT22;18084;53.028;8.834;2023-04-21T06:49:37;14.00;99.90
31455;DHT22;18084;53.028;8.834;2023-04-21T06:52:03;14.10;1.00
31455;DHT22;18084;53.028;8.834;2023-04-21T06:54:29;14.40;99.90
31455;DHT22;18084;53.028;8.834;2023-04-21T06:56:55;14.60;1.00
31455;DHT22;18084;53.028;8.834;2023-04-21T06:59:21;15.00;90.80
31455;DHT22;18084;53.028;8.834;2023-04-21T07:01:47;15.40;99.90
31455;DHT22;18084;53.028;8.834;2023-04-21T07:04:19;15.70;1.00
31455;DHT22;18084;53.028;8.834;2023-04-21T07:06:45;16.10;1.00
31455;DHT22;18084;53.028;8.834;2023-04-21T07:09:13;16.40;99.90
31455;DHT22;18084;53.028;8.834;2023-04-21T07:11:39;16.40;99.90
31455;DHT22;18084;53.028;8.834;2023-04-21T07:14:05;16.70;99.90
31455;DHT22;18084;53.028;8.834;2023-04-21T07:16:31;16.70;1.00
31455;DHT22;18084;53.028;8.834;2023-04-21T07:18:56;16.60;99.90
31455;DHT22;18084;53.028;8.834;2023-04-21T07:21:22;16.70;16.60
31455;DHT22;18084;53.028;8.834;2023-04-21T07:23:47;16.70;1.00
31455;DHT22;18084;53.028;8.834;2023-04-21T07:26:13;16.80;1.00
31455;DHT22;18084;53.028;8.834;2023-04-21T07:28:38;16.70;1.00
31455;DHT22;18084;53.028;8.834;2023-04-21T07:31:07;17.00;1.00
31455;DHT22;18084;53.028;8.834;2023-04-21T07:33:32;17.30;99.90
31455;DHT22;18084;53.028;8.834;2023-04-21T07:35:58;17.30;99.90
31455;DHT22;18084;53.028;8.834;2023-04-21T07:38:23;17.50;99.90
31455;DHT22;18084;53.028;8.834;2023-04-21T07:40:49;17.70;92.50
31455;DHT22;18084;53.028;8.834;2023-04-21T07:43:15;18.20;20.90
31455;DHT22;18084;53.028;8.834;2023-04-21T07:45:40;18.40;99.90
31455;DHT22;18084;53.028;8.834;2023-04-21T07:48:06;18.90;99.90
31455;DHT22;18084;53.028;8.834;2023-04-21T07:50:33;18.40;99.90
31455;DHT22;18084;53.028;8.834;2023-04-21T07:53:00;18.60;99.90
31455;DHT22;18084;53.028;8.834;2023-04-21T07:55:27;19.00;99.90
31455;DHT22;18084;53.028;8.834;2023-04-21T07:57:52;19.30;91.10
31455;DHT22;18084;53.028;8.834;2023-04-21T08:00:19;19.30;18.90
31455;DHT22;18084;53.028;8.834;2023-04-21T08:02:44;19.00;56.40
31455;DHT22;18084;53.028;8.834;2023-04-21T08:05:10;19.20;99.90
31455;DHT22;18084;53.028;8.834;2023-04-21T08:07:36;19.30;5.70
31455;DHT22;18084;53.028;8.834;2023-04-21T08:10:01;19.40;1.00
31455;DHT22;18084;53.028;8.834;2023-04-21T08:12:27;20.00;1.00
31455;DHT22;18084;53.028;8.834;2023-04-21T08:14:53;19.80;1.00
31455;DHT22;18084;53.028;8.834;2023-04-21T08:17:18;19.80;1.00
31455;DHT22;18084;53.028;8.834;2023-04-21T08:19:44;19.70;1.00
31455;DHT22;18084;53.028;8.834;2023-04-21T08:22:09;19.60;1.00
31455;DHT22;18084;53.028;8.834;2023-04-21T08:24:35;19.40;1.00
31455;DHT22;18084;53.028;8.834;2023-04-21T08:27:00;19.50;1.00
31455;DHT22;18084;53.028;8.834;2023-04-21T08:29:26;19.20;1.00
31455;DHT22;18084;53.028;8.834;2023-04-21T08:31:52;19.90;1.00
31455;DHT22;18084;53.028;8.834;2023-04-21T08:34:17;20.50;1.00
31455;DHT22;18084;53.028;8.834;2023-04-21T08:36:44;20.60;99.90
31455;DHT22;18084;53.028;8.834;2023-04-21T08:39:14;20.00;99.90
31455;DHT22;18084;53.028;8.834;2023-04-21T08:41:40;20.10;99.90
31455;DHT22;18084;53.028;8.834;2023-04-21T08:44:07;20.30;99.90
31455;DHT22;18084;53.028;8.834;2023-04-21T08:46:34;20.40;99.90
31455;DHT22;18084;53.028;8.834;2023-04-21T08:49:00;20.50;99.90
31455;DHT22;18084;53.028;8.834;2023-04-21T08:51:27;20.30;99.90
31455;DHT22;18084;53.028;8.834;2023-04-21T08:53:56;20.30;99.90
31455;DHT22;18084;53.028;8.834;2023-04-21T08:56:25;20.90;99.90
31455;DHT22;18084;53.028;8.834;2023-04-21T08:58:51;21.00;99.90
31455;DHT22;18084;53.028;8.834;2023-04-21T09:01:16;21.10;99.90
31455;DHT22;18084;53.028;8.834;2023-04-21T09:03:42;21.40;99.90
31455;DHT22;18084;53.028;8.834;2023-04-21T09:06:08;21.10;99.90
31455;DHT22;18084;53.028;8.834;2023-04-21T09:08:37;21.00;99.90
31455;DHT22;18084;53.028;8.834;2023-04-21T09:11:04;21.20;99.90
31455;DHT22;18084;53.028;8.834;2023-04-21T09:13:36;21.60;99.90
31455;DHT22;18084;53.028;8.834;2023-04-21T09:16:04;21.80;99.90
31455;DHT22;18084;53.028;8.834;2023-04-21T09:18:31;21.60;99.90
31455;DHT22;18084;53.028;8.834;2023-04-21T09:21:08;21.60;99.90
31455;DHT22;18084;53.028;8.834;2023-04-21T09:23:42;21.60;99.90
31455;DHT22;18084;53.028;8.834;2023-04-21T09:26:08;21.60;99.90
31455;DHT22;18084;53.028;8.834;2023-04-21T09:28:33;21.60;99.90
31455;DHT22;18084;53.028;8.834;2023-04-21T09:31:00;21.60;99.90
31455;DHT22;18084;53.028;8.834;2023-04-21T09:33:25;21.30;99.90
31455;DHT22;18084;53.028;8.834;2023-04-21T09:35:51;22.10;99.90
31455;DHT22;18084;53.028;8.834;2023-04-21T09:38:17;22.30;99.90
31455;DHT22;18084;53.028;8.834;2023-04-21T09:40:56;21.80;99.90
31455;DHT22;18084;53.028;8.834;2023-04-21T09:43:21;21.60;99.90
31455;DHT22;18084;53.028;8.834;2023-04-21T09:45:48;21.50;99.90
31455;DHT22;18084;53.028;8.834;2023-04-21T09:48:16;21.40;99.90
31455;DHT22;18084;53.028;8.834;2023-04-21T09:50:42;21.20;99.90
31455;DHT22;18084;53.028;8.834;2023-04-21T09:53:14;21.30;99.90
31455;DHT22;18084;53.028;8.834;2023-04-21T09:55:41;21.10;99.90
31455;DHT22;18084;53.028;8.834;2023-04-21T09:58:08;21.20;99.90
31455;DHT22;18084;53.028;8.834;2023-04-21T10:00:36;21.20;99.90
31455;DHT22;18084;53.028;8.834;2023-04-21T10:03:04;21.70;99.90
31455;DHT22;18084;53.028;8.834;2023-04-21T10:05:29;21.90;99.90
31455;DHT22;18084;53.028;8.834;2023-04-21T10:07:56;21.90;99.90
31455;DHT22;18084;53.028;8.834;2023-04-21T10:10:26;21.90;99.90
31455;DHT22;18084;53.028;8.834;2023-04-21T10:12:52;22.00;99.90
31455;DHT22;18084;53.028;8.834;2023-04-21T10:15:40;21.40;99.90
31455;DHT22;18084;53.028;8.834;2023-04-21T10:21:04;21.50;99.90
31455;DHT22;18084;53.028;8.834;2023-04-21T10:23:38;21.50;99.90
31455;DHT22;18084;53.028;8.834;2023-04-21T10:28:41;21.70;99.90
31455;DHT22;18084;53.028;8.834;2023-04-21T10:31:17;21.50;99.90
31455;DHT22;18084;53.028;8.834;2023-04-21T10:36:28;21.50;99.90
31455;DHT22;18084;53.028;8.834;2023-04-21T10:38:54;21.50;99.90
31455;DHT22;18084;53.028;8.834;2023-04-21T10:41:27;21.60;99.90
31455;DHT22;18084;53.028;8.834;2023-04-21T10:44:00;21.50;99.90
31455;DHT22;18084;53.028;8.834;2023-04-21T10:54:23;21.40;99.90
31455;DHT22;18084;53.028;8.834;2023-04-21T10:56:57;21.30;99.90
31455;DHT22;18084;53.028;8.834;2023-04-21T10:59:24;21.30;99.90
31455;DHT22;18084;53.028;8.834;2023-04-21T11:01:50;21.50;99.90
31455;DHT22;18084;53.028;8.834;2023-04-21T11:04:18;21.40;99.90
31455;DHT22;18084;53.028;8.834;2023-04-21T11:07:10;21.50;99.90
31455;DHT22;18084;53.028;8.834;2023-04-21T11:09:37;21.60;99.90
31455;DHT22;18084;53.028;8.834;2023-04-21T11:12:05;21.50;99.90
31455;DHT22;18084;53.028;8.834;2023-04-21T11:14:35;21.40;99.90
31455;DHT22;18084;53.028;8.834;2023-04-21T11:17:02;21.60;99.90
31455;DHT22;18084;53.028;8.834;2023-04-21T11:19:30;21.90;99.90
31455;DHT22;18084;53.028;8.834;2023-04-21T11:21:56;21.90;99.90
31455;DHT22;18084;53.028;8.834;2023-04-21T11:24:21;22.10;99.90
31455;DHT22;18084;53.028;8.834;2023-04-21T11:26:47;22.00;99.90
31455;DHT22;18084;53.028;8.834;2023-04-21T11:29:13;22.00;99.90
31455;DHT22;18084;53.028;8.834;2023-04-21T11:31:41;22.00;99.90
31455;DHT22;18084;53.028;8.834;2023-04-21T11:34:07;22.40;99.90
31455;DHT22;18084;53.028;8.834;2023-04-21T11:36:41;22.30;99.90
31455;DHT22;18084;53.028;8.834;2023-04-21T11:39:13;22.40;99.90
31455;DHT22;18084;53.028;8.834;2023-04-21T11:41:45;22.40;99.90
31455;DHT22;18084;53.028;8.834;2023-04-21T11:44:11;22.20;99.90
31455;DHT22;18084;53.028;8.834;2023-04-21T11:46:43;22.40;99.90
31455;DHT22;18084;53.028;8.834;2023-04-21T11:49:11;22.40;99.90
31455;DHT22;18084;53.028;8.834;2023-04-21T11:51:39;22.10;99.90
31455;DHT22;18084;53.028;8.834;2023-04-21T11:54:10;22.40;99.90
31455;DHT22;18084;53.028;8.834;2023-04-21T11:56:39;22.70;99.90
31455;DHT22;18084;53.028;8.834;2023-04-21T12:01:33;22.50;99.90
31455;DHT22;18084;53.028;8.834;2023-04-21T12:03:59;22.60;99.90
31455;DHT22;18084;53.028;8.834;2023-04-21T12:06:25;22.40;99.90
31455;DHT22;18084;53.028;8.834;2023-04-21T12:09:00;22.20;99.90
31455;DHT22;18084;53.028;8.834;2023-04-21T12:11:30;22.00;99.90
31455;DHT22;18084;53.028;8.834;2023-04-21T12:13:57;22.00;99.90
31455;DHT22;18084;53.028;8.834;2023-04-21T12:16:27;22.20;99.90
31455;DHT22;18084;53.028;8.834;2023-04-21T12:18:56;22.30;99.90
31455;DHT22;18084;53.028;8.834;2023-04-21T12:21:29;22.30;99.90
31455;DHT22;18084;53.028;8.834;2023-04-21T12:23:55;22.50;99.90
31455;DHT22;18084;53.028;8.834;2023-04-21T12:26:21;22.50;99.90
31455;DHT22;18084;53.028;8.834;2023-04-21T12:28:51;22.50;99.90
31455;DHT22;18084;53.028;8.834;2023-04-21T12:31:18;22.40;99.90
31455;DHT22;18084;53.028;8.834;2023-04-21T12:33:43;22.40;99.90
31455;DHT22;18084;53.028;8.834;2023-04-21T12:36:09;22.40;99.90
31455;DHT22;18084;53.028;8.834;2023-04-21T12:38:35;22.30;99.90
31455;DHT22;18084;53.028;8.834;2023-04-21T12:41:01;22.20;99.90
31455;DHT22;18084;53.028;8.834;2023-04-21T12:43:26;22.10;99.90
31455;DHT22;18084;53.028;8.834;2023-04-21T12:45:52;22.20;99.90
31455;DHT22;18084;53.028;8.834;2023-04-21T12:48:18;22.10;99.90
31455;DHT22;18084;53.028;8.834;2023-04-21T12:50:46;22.20;99.90
31455;DHT22;18084;53.028;8.834;2023-04-21T12:53:12;22.10;99.90
31455;DHT22;18084;53.028;8.834;2023-04-21T12:55:38;22.10;99.90
31455;DHT22;18084;53.028;8.834;2023-04-21T12:58:04;22.10;99.90
31455;DHT22;18084;53.028;8.834;2023-04-21T13:00:29;22.30;99.90
31455;DHT22;18084;53.028;8.834;2023-04-21T13:02:56;22.30;99.90
31455;DHT22;18084;53.028;8.834;2023-04-21T13:05:21;22.10;99.90
31455;DHT22;18084;53.028;8.834;2023-04-21T13:07:47;22.30;99.90
31455;DHT22;18084;53.028;8.834;2023-04-21T13:10:13;22.20;99.90
31455;DHT22;18084;53.028;8.834;2023-04-21T13:12:38;22.30;99.90
31455;DHT22;18084;53.028;8.834;2023-04-21T13:15:04;22.40;99.90
31455;DHT22;18084;53.028;8.834;2023-04-21T13:17:30;22.50;99.90
31455;DHT22;18084;53.028;8.834;2023-04-21T13:19:55;22.40;99.90
31455;DHT22;18084;53.028;8.834;2023-04-21T13:22:21;22.70;99.90
31455;DHT22;18084;53.028;8.834;2023-04-21T13:24:47;22.70;99.90
31455;DHT22;18084;53.028;8.834;2023-04-21T13:27:12;22.70;99.70
31455;DHT22;18084;53.028;8.834;2023-04-21T13:29:38;22.50;99.70
31455;DHT22;18084;53.028;8.834;2023-04-21T13:32:05;22.60;99.00
31455;DHT22;18084;53.028;8.834;2023-04-21T13:34:32;22.30;99.10
31455;DHT22;18084;53.028;8.834;2023-04-21T13:36:58;22.40;99.50
31455;DHT22;18084;53.028;8.834;2023-04-21T13:39:24;22.30;99.60
31455;DHT22;18084;53.028;8.834;2023-04-21T13:41:50;22.40;99.90
31455;DHT22;18084;53.028;8.834;2023-04-21T13:44:17;22.40;97.70
31455;DHT22;18084;53.028;8.834;2023-04-21T13:46:43;22.20;97.40
31455;DHT22;18084;53.028;8.834;2023-04-21T13:49:09;22.50;97.90
31455;DHT22;18084;53.028;8.834;2023-04-21T13:51:34;22.50;97.90
31455;DHT22;18084;53.028;8.834;2023-04-21T13:54:00;22.40;98.80
31455;DHT22;18084;53.028;8.834;2023-04-21T13:56:25;22.40;98.50
31455;DHT22;18084;53.028;8.834;2023-04-21T13:58:51;22.50;98.80
31455;DHT22;18084;53.028;8.834;2023-04-21T14:01:17;22.50;99.80
31455;DHT22;18084;53.028;8.834;2023-04-21T14:03:42;22.40;98.30
31455;DHT22;18084;53.028;8.834;2023-04-21T14:06:08;22.40;98.60
31455;DHT22;18084;53.028;8.834;2023-04-21T14:08:34;22.10;99.20
31455;DHT22;18084;53.028;8.834;2023-04-21T14:11:01;21.90;99.90
31455;DHT22;18084;53.028;8.834;2023-04-21T14:13:27;22.10;99.90
31455;DHT22;18084;53.028;8.834;2023-04-21T14:15:54;22.10;99.90
31455;DHT22;18084;53.028;8.834;2023-04-21T14:18:20;22.20;99.90
31455;DHT22;18084;53.028;8.834;2023-04-21T14:20:45;22.30;99.90
31455;DHT22;18084;53.028;8.834;2023-04-21T14:23:11;22.30;99.90
31455;DHT22;18084;53.028;8.834;2023-04-21T14:25:36;22.30;99.90
31455;DHT22;18084;53.028;8.834;2023-04-21T14:28:02;22.20;99.90
31455;DHT22;18084;53.028;8.834;2023-04-21T14:30:32;22.30;99.90
31455;DHT22;18084;53.028;8.834;2023-04-21T14:32:57;22.20;99.90
31455;DHT22;18084;53.028;8.834;2023-04-21T14:35:23;22.20;99.90
31455;DHT22;18084;53.028;8.834;2023-04-21T14:37:48;22.20;99.90
31455;DHT22;18084;53.028;8.834;2023-04-21T14:40:14;22.10;99.90
31455;DHT22;18084;53.028;8.834;2023-04-21T14:42:40;22.10;99.90
31455;DHT22;18084;53.028;8.834;2023-04-21T14:45:07;22.00;99.90
31455;DHT22;18084;53.028;8.834;2023-04-21T14:47:33;21.70;99.90
31455;DHT22;18084;53.028;8.834;2023-04-21T14:50:00;21.80;99.90
31455;DHT22;18084;53.028;8.834;2023-04-21T14:52:25;21.70;99.90
31455;DHT22;18084;53.028;8.834;2023-04-21T14:54:52;21.80;99.90
31455;DHT22;18084;53.028;8.834;2023-04-21T14:57:17;22.00;99.90
31455;DHT22;18084;53.028;8.834;2023-04-21T14:59:43;22.10;99.90
31455;DHT22;18084;53.028;8.834;2023-04-21T15:02:11;22.00;99.90
31455;DHT22;18084;53.028;8.834;2023-04-21T15:04:39;21.80;99.90
31455;DHT22;18084;53.028;8.834;2023-04-21T15:07:05;21.50;99.90
31455;DHT22;18084;53.028;8.834;2023-04-21T15:09:31;21.70;99.90
31455;DHT22;18084;53.028;8.834;2023-04-21T15:11:56;21.90;99.90
31455;DHT22;18084;53.028;8.834;2023-04-21T15:14:22;21.90;99.90
31455;DHT22;18084;53.028;8.834;2023-04-21T15:16:47;21.80;99.90
31455;DHT22;18084;53.028;8.834;2023-04-21T15:19:13;21.70;99.90
31455;DHT22;18084;53.028;8.834;2023-04-21T15:21:38;21.70;99.90
31455;DHT22;18084;53.028;8.834;2023-04-21T15:24:04;21.70;99.90
31455;DHT22;18084;53.028;8.834;2023-04-21T15:26:30;21.70;99.90
31455;DHT22;18084;53.028;8.834;2023-04-21T15:28:56;21.60;99.90
31455;DHT22;18084;53.028;8.834;2023-04-21T15:31:22;21.30;99.90
31455;DHT22;18084;53.028;8.834;2023-04-21T15:33:48;21.40;99.90
31455;DHT22;18084;53.028;8.834;2023-04-21T15:36:13;21.60;99.90
31455;DHT22;18084;53.028;8.834;2023-04-21T15:38:39;21.60;99.90
31455;DHT22;18084;53.028;8.834;2023-04-21T15:41:04;21.70;99.90
31455;DHT22;18084;53.028;8.834;2023-04-21T15:43:30;21.90;99.90
31455;DHT22;18084;53.028;8.834;2023-04-21T15:45:56;21.70;99.90
31455;DHT22;18084;53.028;8.834;2023-04-21T15:48:21;21.90;99.90
31455;DHT22;18084;53.028;8.834;2023-04-21T15:50:47;21.90;99.90